Time;durP1;ratioP1;P1;durP2;ratioP2;P2;SDS_P1;SDS_P2;PMS_P1;PMS_P2;Temp;Humidity;BMP_temperature;BMP_pressure;BME280_temperature;BME280_humidity;BME280_pressure;Samples;Min_cycle;Max_cycle;Signal;HPM_P1;HPM_P2
2024/01/31 00:02:14;;;;;;;2.33;2.13;;;19.20;52.20;;;;;;5019909;28;20030;-49
2024/01/31 00:04:40;;;;;;;2.28;1.95;;;19.20;52.20;;;;;;5018874;28;20407;-48
2024/01/31 00:07:05;;;;;;;2.95;2.38;;;19.20;52.30;;;;;;5018869;28;20064;-48
2024/01/31 00:09:31;;;;;;;3.05;2.25;;;19.20;52.30;;;;;;5019783;28;20040;-48
2024/01/31 00:11:57;;;;;;;3.20;1.90;;;19.20;52.30;;;;;;5021163;28;20041;-49
2024/01/31 00:14:22;;;;;;;2.97;2.20;;;19.20;52.30;;;;;;5020197;28;20037;-49
2024/01/31 00:16:48;;;;;;;3.17;2.10;;;19.20;52.30;;;;;;5020877;28;20033;-48
2024/01/31 00:19:13;;;;;;;3.05;2.40;;;19.20;52.20;;;;;;5020534;28;20482;-48
2024/01/31 00:21:39;;;;;;;2.80;2.45;;;19.20;52.20;;;;;;5022042;28;20125;-47
2024/01/31 00:24:06;;;;;;;2.30;1.85;;;19.20;52.30;;;;;;5017780;28;20041;-49
2024/01/31 00:26:31;;;;;;;3.13;2.10;;;19.20;52.30;;;;;;5018552;28;20482;-49
2024/01/31 00:28:57;;;;;;;3.05;2.28;;;19.20;52.30;;;;;;5019213;28;20080;-56
2024/01/31 00:31:22;;;;;;;2.60;2.00;;;19.20;52.30;;;;;;5019186;28;20105;-49
2024/01/31 00:33:48;;;;;;;2.10;1.80;;;19.20;52.20;;;;;;5021660;28;20038;-50
2024/01/31 00:36:15;;;;;;;2.85;2.33;;;19.20;52.30;;;;;;5019464;28;20097;-48
2024/01/31 00:38:40;;;;;;;2.20;2.00;;;19.20;52.20;;;;;;5018914;28;20071;-48
2024/01/31 00:41:06;;;;;;;3.10;2.63;;;19.20;52.30;;;;;;5022863;28;20022;-49
2024/01/31 00:43:32;;;;;;;4.13;2.65;;;19.30;52.30;;;;;;5022775;28;20042;-49
2024/01/31 00:45:57;;;;;;;2.53;2.10;;;19.20;52.30;;;;;;5020987;28;20045;-49
2024/01/31 00:48:23;;;;;;;2.55;1.98;;;19.20;52.20;;;;;;5005931;28;20121;-49
2024/01/31 00:50:48;;;;;;;2.47;1.77;;;19.20;52.20;;;;;;5002666;28;20469;-48
2024/01/31 00:53:14;;;;;;;2.53;1.83;;;19.30;52.30;;;;;;5023385;28;20037;-48
2024/01/31 00:55:39;;;;;;;2.58;2.13;;;19.20;52.20;;;;;;5021758;28;20437;-50
2024/01/31 00:58:05;;;;;;;3.58;2.50;;;19.20;52.30;;;;;;5020554;28;20033;-49
2024/01/31 01:00:30;;;;;;;2.72;2.00;;;19.20;52.30;;;;;;5022859;28;20121;-48
2024/01/31 01:02:56;;;;;;;3.00;2.10;;;19.20;52.30;;;;;;5023272;28;20041;-48
2024/01/31 01:05:21;;;;;;;2.70;2.10;;;19.20;52.30;;;;;;5023249;28;20044;-50
2024/01/31 01:07:47;;;;;;;3.28;2.28;;;19.30;52.30;;;;;;5020641;28;20033;-47
2024/01/31 01:10:14;;;;;;;2.40;2.20;;;19.30;52.30;;;;;;5021417;28;20418;-49
2024/01/31 01:12:39;;;;;;;2.63;1.83;;;19.30;52.30;;;;;;5025088;28;20084;-49
2024/01/31 01:15:05;;;;;;;3.63;2.60;;;19.20;52.30;;;;;;5002805;28;20538;-48
2024/01/31 01:17:32;;;;;;;4.07;2.13;;;19.20;52.30;;;;;;5023198;28;20064;-49
2024/01/31 01:19:57;;;;;;;2.85;2.28;;;19.30;52.30;;;;;;5025005;28;20037;-49
2024/01/31 01:22:23;;;;;;;3.28;2.08;;;19.30;52.30;;;;;;5022112;28;20045;-50
2024/01/31 01:24:49;;;;;;;3.70;2.28;;;19.30;52.30;;;;;;5002215;28;20034;-48
2024/01/31 01:27:14;;;;;;;3.67;2.25;;;19.30;52.50;;;;;;5021770;28;20049;-48
2024/01/31 01:29:39;;;;;;;2.67;2.10;;;19.30;52.30;;;;;;5022587;28;20029;-48
2024/01/31 01:32:05;;;;;;;2.75;2.13;;;19.30;52.30;;;;;;5021653;28;20431;-47
2024/01/31 01:34:31;;;;;;;2.53;2.17;;;19.30;52.30;;;;;;5023496;28;20038;-47
2024/01/31 01:36:56;;;;;;;3.55;2.38;;;19.30;52.30;;;;;;5021524;28;20360;-48
2024/01/31 01:39:22;;;;;;;3.38;2.20;;;19.20;52.30;;;;;;5022186;28;20026;-50
2024/01/31 01:41:48;;;;;;;2.53;2.10;;;19.20;52.30;;;;;;5019109;28;20438;-49
2024/01/31 01:44:14;;;;;;;3.38;2.42;;;19.20;52.40;;;;;;5022147;28;20694;-48
2024/01/31 01:46:40;;;;;;;2.97;2.47;;;19.20;52.50;;;;;;5021418;28;20048;-49
2024/01/31 01:49:06;;;;;;;2.88;2.28;;;19.10;52.50;;;;;;5025706;28;20484;-49
2024/01/31 01:51:32;;;;;;;3.33;2.20;;;19.10;52.60;;;;;;5019381;28;20121;-50
2024/01/31 01:53:58;;;;;;;2.83;2.08;;;19.10;52.70;;;;;;5013239;28;20029;-49
2024/01/31 01:56:24;;;;;;;2.75;2.22;;;19.00;52.70;;;;;;5021181;28;20105;-49
2024/01/31 01:58:52;;;;;;;2.63;2.40;;;19.00;52.80;;;;;;5018415;28;20036;-47
2024/01/31 02:01:18;;;;;;;3.47;2.35;;;19.00;52.90;;;;;;5013981;28;20033;-49
2024/01/31 02:03:45;;;;;;;3.78;2.30;;;19.00;52.90;;;;;;5014877;28;20030;-49
2024/01/31 02:06:11;;;;;;;2.90;2.28;;;19.00;52.90;;;;;;5017914;28;20029;-49
2024/01/31 02:08:36;;;;;;;2.55;1.98;;;18.90;53.00;;;;;;5003298;28;20037;-51
2024/01/31 02:11:02;;;;;;;2.63;2.40;;;19.00;53.00;;;;;;5020617;28;20083;-52
2024/01/31 02:13:30;;;;;;;3.28;2.20;;;19.00;53.00;;;;;;5022203;28;20109;-49
2024/01/31 02:15:57;;;;;;;3.42;2.22;;;18.90;53.50;;;;;;5017489;28;20040;-50
2024/01/31 02:18:27;;;;;;;2.92;2.58;;;19.00;52.90;;;;;;5021118;28;20033;-48
2024/01/31 02:20:53;;;;;;;2.40;2.20;;;19.00;52.90;;;;;;5020513;28;20047;-50
2024/01/31 02:23:19;;;;;;;2.67;2.10;;;19.00;52.80;;;;;;5003286;28;20691;-51
2024/01/31 02:25:45;;;;;;;2.67;1.85;;;19.00;52.80;;;;;;5021531;28;20395;-49
2024/01/31 02:28:11;;;;;;;2.92;2.30;;;19.00;52.80;;;;;;5002593;28;20045;-49
2024/01/31 02:30:36;;;;;;;3.88;2.20;;;19.00;52.60;;;;;;5022619;28;20394;-48
2024/01/31 02:33:02;;;;;;;2.90;2.13;;;19.10;52.60;;;;;;5021858;28;20036;-50
2024/01/31 02:35:32;;;;;;;2.08;1.88;;;19.10;52.60;;;;;;5021964;28;20569;-53
2024/01/31 02:37:58;;;;;;;3.10;2.00;;;19.10;52.60;;;;;;5020222;28;20087;-47
2024/01/31 02:40:24;;;;;;;3.83;2.92;;;19.10;52.50;;;;;;5001729;28;20041;-47
2024/01/31 02:42:49;;;;;;;2.40;2.20;;;19.10;52.50;;;;;;5019008;28;20128;-49
2024/01/31 02:45:15;;;;;;;3.80;2.53;;;19.20;52.50;;;;;;5021462;28;20033;-49
2024/01/31 02:47:41;;;;;;;2.30;2.10;;;19.20;52.40;;;;;;5020416;28;20497;-49
2024/01/31 02:50:06;;;;;;;2.92;2.50;;;19.20;52.40;;;;;;5021547;28;20111;-48
2024/01/31 02:52:32;;;;;;;2.97;2.33;;;19.20;52.30;;;;;;5018934;28;20029;-49
2024/01/31 02:54:58;;;;;;;3.83;2.38;;;19.20;52.40;;;;;;5021274;28;20034;-53
2024/01/31 02:57:24;;;;;;;3.38;2.10;;;19.30;52.30;;;;;;5019657;28;20033;-49
2024/01/31 02:59:49;;;;;;;2.42;2.05;;;19.30;52.30;;;;;;5018623;28;20439;-57
2024/01/31 03:02:16;;;;;;;2.58;2.22;;;19.30;52.30;;;;;;5010097;28;20044;-55
2024/01/31 03:04:41;;;;;;;2.58;2.30;;;19.30;52.30;;;;;;5015696;28;20036;-55
2024/01/31 03:07:07;;;;;;;2.50;2.00;;;19.30;52.20;;;;;;5012116;28;20478;-51
2024/01/31 03:09:32;;;;;;;2.42;2.00;;;19.30;52.20;;;;;;5000338;28;20120;-47
2024/01/31 03:11:58;;;;;;;3.58;2.15;;;19.30;52.20;;;;;;5016738;28;20029;-51
2024/01/31 03:14:23;;;;;;;2.70;2.35;;;19.30;52.20;;;;;;5001607;28;20124;-55
2024/01/31 03:16:48;;;;;;;2.30;2.10;;;19.30;52.20;;;;;;5017263;28;20036;-54
2024/01/31 03:19:15;;;;;;;4.00;2.08;;;19.30;52.20;;;;;;5019843;28;20034;-48
2024/01/31 03:21:41;;;;;;;2.38;2.17;;;19.30;52.30;;;;;;5017686;28;20045;-50
2024/01/31 03:24:06;;;;;;;2.92;2.03;;;19.30;52.90;;;;;;5018762;28;20044;-48
2024/01/31 03:26:32;;;;;;;3.92;2.47;;;19.30;52.30;;;;;;5018979;28;20113;-52
2024/01/31 03:29:01;;;;;;;2.92;2.45;;;19.30;52.30;;;;;;5020656;28;20037;-48
2024/01/31 03:31:27;;;;;;;2.58;2.38;;;19.20;52.30;;;;;;5020641;28;20036;-48
2024/01/31 03:33:52;;;;;;;2.67;2.35;;;19.20;52.30;;;;;;5019230;28;20033;-53
2024/01/31 03:36:17;;;;;;;2.53;2.33;;;19.20;52.30;;;;;;5018708;28;20091;-47
2024/01/31 03:38:43;;;;;;;2.35;2.15;;;19.20;52.30;;;;;;5020367;28;20060;-52
2024/01/31 03:41:09;;;;;;;3.05;2.60;;;19.20;52.30;;;;;;5021542;28;20032;-51
2024/01/31 03:43:35;;;;;;;4.25;2.53;;;19.20;52.40;;;;;;5019734;28;20453;-52
2024/01/31 03:46:04;;;;;;;3.33;2.50;;;19.20;52.40;;;;;;5019531;28;20399;-55
2024/01/31 03:48:30;;;;;;;2.58;2.30;;;19.20;52.40;;;;;;5020367;28;20108;-53
2024/01/31 03:50:58;;;;;;;2.30;1.80;;;19.20;52.40;;;;;;5021620;28;20096;-49
2024/01/31 03:53:24;;;;;;;4.22;2.20;;;19.20;52.50;;;;;;5019363;28;20036;-50
2024/01/31 03:55:49;;;;;;;2.30;2.10;;;19.20;53.10;;;;;;5021564;28;20057;-54
2024/01/31 03:58:15;;;;;;;3.22;2.67;;;19.20;52.50;;;;;;5021523;28;20060;-53
2024/01/31 04:00:41;;;;;;;3.17;2.30;;;19.20;52.50;;;;;;5015056;28;20029;-48
2024/01/31 04:03:07;;;;;;;3.40;2.30;;;19.20;52.50;;;;;;5014963;28;20034;-47
2024/01/31 04:05:33;;;;;;;2.15;1.80;;;19.20;52.50;;;;;;5016051;28;20748;-46
2024/01/31 04:07:58;;;;;;;2.40;2.20;;;19.20;52.50;;;;;;5018051;28;20033;-51
2024/01/31 04:10:24;;;;;;;2.30;2.10;;;19.20;52.50;;;;;;5002907;28;20393;-46
2024/01/31 04:12:50;;;;;;;2.88;2.15;;;19.20;52.50;;;;;;5015098;28;20510;-47
2024/01/31 04:15:15;;;;;;;2.42;2.20;;;19.20;52.50;;;;;;5019549;28;20798;-48
2024/01/31 04:17:41;;;;;;;3.22;1.90;;;19.20;52.50;;;;;;5021121;28;20029;-48
2024/01/31 04:20:07;;;;;;;3.17;2.15;;;19.20;52.50;;;;;;5022987;28;20537;-48
2024/01/31 04:22:32;;;;;;;2.58;2.17;;;19.20;52.50;;;;;;5012125;28;20064;-47
2024/01/31 04:24:58;;;;;;;3.38;2.50;;;19.20;52.50;;;;;;5023707;28;20120;-50
2024/01/31 04:27:23;;;;;;;2.28;2.08;;;19.20;52.50;;;;;;5023374;28;20037;-49
2024/01/31 04:29:49;;;;;;;3.33;2.05;;;19.20;52.50;;;;;;5022573;28;20041;-48
2024/01/31 04:32:14;;;;;;;2.40;2.20;;;19.20;52.60;;;;;;5023007;28;20033;-47
2024/01/31 04:34:40;;;;;;;2.97;2.58;;;19.20;52.50;;;;;;5021957;28;20565;-48
2024/01/31 04:37:06;;;;;;;2.28;2.03;;;19.20;52.50;;;;;;5024100;28;20052;-49
2024/01/31 04:39:31;;;;;;;2.50;2.30;;;19.20;52.50;;;;;;5023524;28;20026;-49
2024/01/31 04:41:57;;;;;;;3.35;2.53;;;19.20;52.50;;;;;;5022675;28;20099;-49
2024/01/31 04:44:22;;;;;;;2.80;2.60;;;19.20;52.50;;;;;;5023373;28;20029;-47
2024/01/31 04:46:48;;;;;;;2.78;2.33;;;19.20;52.50;;;;;;5021315;28;20053;-50
2024/01/31 04:49:13;;;;;;;2.33;2.10;;;19.20;52.40;;;;;;5022228;28;20026;-50
2024/01/31 04:51:42;;;;;;;2.70;2.25;;;19.20;52.50;;;;;;5026097;28;20025;-48
2024/01/31 04:54:07;;;;;;;2.53;2.33;;;19.20;52.40;;;;;;5022309;28;20099;-51
2024/01/31 04:56:35;;;;;;;2.35;2.15;;;19.20;52.40;;;;;;5022180;28;20060;-49
2024/01/31 04:59:00;;;;;;;2.97;2.20;;;19.20;52.40;;;;;;5022014;28;20029;-48
2024/01/31 05:01:26;;;;;;;2.35;2.15;;;19.20;52.40;;;;;;5023514;28;20079;-49
2024/01/31 05:03:52;;;;;;;2.53;2.33;;;19.20;52.40;;;;;;5020746;28;20034;-48
2024/01/31 05:06:18;;;;;;;2.30;2.10;;;19.20;52.30;;;;;;5019338;28;20763;-51
2024/01/31 05:08:44;;;;;;;2.65;2.03;;;19.20;52.30;;;;;;5022195;28;20137;-50
2024/01/31 05:11:13;;;;;;;2.65;2.15;;;19.20;52.30;;;;;;5021663;28;20033;-48
2024/01/31 05:13:39;;;;;;;2.58;2.10;;;19.20;52.30;;;;;;5021467;28;20034;-51
2024/01/31 05:16:11;;;;;;;2.42;2.22;;;19.30;52.30;;;;;;5021611;28;20097;-51
2024/01/31 05:18:36;;;;;;;2.28;2.08;;;19.30;52.30;;;;;;5023701;28;20030;-46
2024/01/31 05:21:02;;;;;;;2.65;2.45;;;19.30;52.30;;;;;;5020905;28;20028;-49
2024/01/31 05:23:28;;;;;;;2.60;1.92;;;19.30;52.30;;;;;;5024366;28;20040;-49
2024/01/31 05:25:54;;;;;;;2.47;2.28;;;19.30;52.30;;;;;;5020134;28;20037;-47
2024/01/31 05:28:20;;;;;;;2.00;1.80;;;19.30;52.30;;;;;;5023107;28;20040;-49
2024/01/31 05:30:46;;;;;;;2.88;2.55;;;19.30;52.20;;;;;;5021641;28;20040;-49
2024/01/31 05:33:12;;;;;;;3.47;2.17;;;19.30;52.20;;;;;;5021878;28;20041;-48
2024/01/31 05:35:38;;;;;;;2.75;2.45;;;19.30;52.20;;;;;;5021280;28;20087;-50
2024/01/31 05:38:04;;;;;;;3.92;2.38;;;19.30;52.20;;;;;;5021227;28;20100;-51
2024/01/31 05:40:30;;;;;;;3.20;2.40;;;19.30;52.10;;;;;;5004341;28;20032;-49
2024/01/31 05:42:56;;;;;;;2.42;2.15;;;19.30;52.10;;;;;;5021232;28;20132;-50
2024/01/31 05:45:22;;;;;;;3.90;2.58;;;19.40;52.20;;;;;;5022646;28;20091;-49
2024/01/31 05:47:47;;;;;;;2.53;2.13;;;19.40;52.10;;;;;;5020233;28;20542;-51
2024/01/31 05:50:13;;;;;;;3.25;2.70;;;19.40;52.10;;;;;;5021082;28;20025;-51
2024/01/31 05:52:38;;;;;;;3.10;2.40;;;19.40;52.10;;;;;;5023353;28;20037;-45
2024/01/31 05:55:04;;;;;;;2.75;2.50;;;19.40;52.10;;;;;;5021480;28;20040;-50
2024/01/31 05:57:30;;;;;;;2.28;2.05;;;19.40;52.10;;;;;;5022890;28;20037;-50
2024/01/31 05:59:55;;;;;;;2.78;2.42;;;19.40;52.10;;;;;;5021619;28;20088;-50
2024/01/31 06:02:21;;;;;;;3.75;2.78;;;19.40;52.10;;;;;;5019585;28;20041;-49
2024/01/31 06:04:47;;;;;;;2.20;2.00;;;19.40;52.10;;;;;;5021931;28;20083;-47
2024/01/31 06:07:12;;;;;;;2.60;2.38;;;19.40;52.00;;;;;;5021502;28;20083;-50
2024/01/31 06:09:38;;;;;;;2.47;2.28;;;19.40;52.00;;;;;;5024328;28;20026;-48
2024/01/31 06:12:05;;;;;;;2.42;2.20;;;19.40;52.00;;;;;;5020738;28;20037;-48
2024/01/31 06:14:31;;;;;;;2.83;2.15;;;19.40;52.00;;;;;;5025024;28;20051;-46
2024/01/31 06:16:57;;;;;;;3.10;2.67;;;19.40;52.00;;;;;;5019794;28;20414;-48
2024/01/31 06:19:23;;;;;;;2.95;2.35;;;19.40;52.00;;;;;;5026108;28;20030;-46
2024/01/31 06:21:48;;;;;;;2.35;2.10;;;19.40;52.00;;;;;;5020826;28;20052;-50
2024/01/31 06:24:14;;;;;;;2.85;2.28;;;19.40;52.00;;;;;;5021602;28;20156;-49
2024/01/31 06:26:41;;;;;;;2.53;2.17;;;19.50;52.00;;;;;;5021161;28;20045;-50
2024/01/31 06:29:07;;;;;;;2.35;2.15;;;19.50;52.00;;;;;;5022207;28;20034;-50
2024/01/31 06:31:39;;;;;;;3.15;2.60;;;19.50;52.00;;;;;;5021017;28;20022;-50
2024/01/31 06:34:06;;;;;;;2.22;2.10;;;19.50;52.00;;;;;;5021763;28;20029;-45
2024/01/31 06:36:31;;;;;;;3.78;2.42;;;19.50;52.00;;;;;;5020841;28;20025;-45
2024/01/31 06:38:59;;;;;;;2.35;2.15;;;19.40;52.60;;;;;;5021972;28;20280;-50
2024/01/31 06:41:25;;;;;;;2.47;2.03;;;19.40;51.90;;;;;;4991760;28;20104;-49
2024/01/31 06:43:51;;;;;;;2.50;2.30;;;19.50;52.00;;;;;;5019398;28;20100;-49
2024/01/31 06:46:18;;;;;;;2.60;2.03;;;19.50;52.00;;;;;;5020562;28;20022;-48
2024/01/31 06:48:43;;;;;;;3.85;2.97;;;19.40;52.00;;;;;;5023668;28;20029;-47
2024/01/31 06:51:09;;;;;;;2.92;2.60;;;19.40;52.00;;;;;;5021090;28;20036;-48
2024/01/31 06:53:34;;;;;;;2.78;2.38;;;19.40;52.00;;;;;;5024439;28;20486;-50
2024/01/31 06:56:00;;;;;;;2.30;2.10;;;19.40;52.00;;;;;;5020052;28;20032;-48
2024/01/31 06:58:26;;;;;;;3.05;2.30;;;19.50;52.10;;;;;;5024153;28;20037;-48
2024/01/31 07:00:55;;;;;;;2.97;2.47;;;19.50;52.10;;;;;;5018874;28;20034;-49
2024/01/31 07:03:20;;;;;;;2.72;2.53;;;19.40;52.10;;;;;;5022666;28;20108;-47
2024/01/31 07:05:46;;;;;;;3.47;2.30;;;19.40;52.10;;;;;;5019695;28;20121;-47
2024/01/31 07:08:11;;;;;;;2.60;2.13;;;19.40;52.10;;;;;;5004538;28;20053;-49
2024/01/31 07:10:37;;;;;;;2.53;2.13;;;19.40;52.10;;;;;;5019789;28;20116;-47
2024/01/31 07:13:03;;;;;;;2.38;2.10;;;19.40;52.10;;;;;;5016124;28;20125;-49
2024/01/31 07:18:50;;;;;;;2.63;2.22;;;19.40;52.10;;;;;;4990659;28;20428;-49
2024/01/31 07:21:25;;;;;;;3.85;2.78;;;19.40;52.10;;;;;;5016208;28;20029;-49
2024/01/31 07:23:51;;;;;;;;;;;19.40;52.10;;;;;;5001586;28;20048;-48
2024/01/31 07:26:24;;;;;;;2.50;2.30;;;19.40;52.10;;;;;;5019309;28;19913;-49
2024/01/31 07:28:53;;;;;;;2.53;2.33;;;19.40;52.10;;;;;;5022624;28;20072;-51
2024/01/31 07:31:19;;;;;;;2.72;2.50;;;19.40;52.10;;;;;;5017147;28;20064;-49
2024/01/31 07:33:46;;;;;;;3.20;2.63;;;19.40;52.70;;;;;;5022829;28;20033;-49
2024/01/31 07:36:12;;;;;;;2.92;2.40;;;19.40;52.10;;;;;;5016339;28;20030;-48
2024/01/31 07:38:42;;;;;;;3.00;2.70;;;19.40;52.10;;;;;;5020830;28;20029;-50
2024/01/31 07:41:08;;;;;;;2.97;2.28;;;19.40;52.10;;;;;;5024126;28;20559;-50
2024/01/31 07:43:33;;;;;;;2.75;2.28;;;19.40;52.10;;;;;;5024320;28;20042;-49
2024/01/31 07:45:59;;;;;;;3.03;2.50;;;19.40;52.10;;;;;;5024331;28;20030;-48
2024/01/31 07:48:24;;;;;;;2.83;2.47;;;19.40;52.10;;;;;;5024093;28;20030;-48
2024/01/31 07:50:50;;;;;;;2.80;2.60;;;19.40;52.10;;;;;;5021109;28;20033;-49
2024/01/31 07:53:15;;;;;;;2.70;2.50;;;19.40;52.10;;;;;;5024114;28;20036;-49
2024/01/31 07:55:41;;;;;;;2.83;2.47;;;19.50;52.10;;;;;;5025396;28;20026;-50
2024/01/31 07:58:07;;;;;;;3.15;2.85;;;19.40;52.10;;;;;;5023037;28;20036;-48
2024/01/31 08:00:33;;;;;;;2.55;2.22;;;19.40;52.00;;;;;;5021734;28;20033;-50
2024/01/31 08:02:58;;;;;;;3.58;2.47;;;19.40;52.00;;;;;;5023622;28;20529;-52
2024/01/31 08:05:24;;;;;;;3.47;2.45;;;19.50;52.10;;;;;;5026367;28;20037;-49
2024/01/31 08:07:50;;;;;;;3.83;2.63;;;19.50;52.10;;;;;;5023009;28;20040;-48
2024/01/31 08:10:15;;;;;;;4.15;2.47;;;19.50;52.10;;;;;;5024415;28;20091;-54
2024/01/31 08:12:42;;;;;;;5.93;3.20;;;19.50;52.10;;;;;;5023829;28;20033;-52
2024/01/31 08:15:08;;;;;;;3.17;2.42;;;19.40;52.10;;;;;;5025865;28;20494;-49
2024/01/31 08:17:34;;;;;;;3.63;2.83;;;19.40;52.10;;;;;;5023514;28;20041;-47
2024/01/31 08:19:59;;;;;;;3.72;2.63;;;19.50;52.20;;;;;;5026471;28;20044;-48
2024/01/31 08:22:25;;;;;;;4.38;2.15;;;19.40;52.10;;;;;;5023601;28;20033;-53
2024/01/31 08:24:50;;;;;;;3.00;2.60;;;19.50;52.20;;;;;;5027911;28;20117;-49
2024/01/31 08:27:19;;;;;;;3.95;2.80;;;19.40;52.10;;;;;;5021619;28;20017;-50
2024/01/31 08:29:45;;;;;;;2.50;2.15;;;19.40;52.10;;;;;;5027118;28;20033;-47
2024/01/31 08:32:10;;;;;;;4.85;2.90;;;19.50;52.20;;;;;;5005307;28;20037;-48
2024/01/31 08:34:36;;;;;;;6.10;2.17;;;19.40;52.10;;;;;;5024502;28;20030;-48
2024/01/31 08:37:02;;;;;;;3.38;2.17;;;19.40;52.10;;;;;;5021654;28;20144;-51
2024/01/31 08:39:29;;;;;;;2.75;2.45;;;19.40;52.20;;;;;;5006754;28;20087;-50
2024/01/31 08:41:55;;;;;;;2.67;2.47;;;19.40;52.20;;;;;;5022851;28;20036;-46
2024/01/31 08:44:21;;;;;;;4.35;2.75;;;19.40;52.20;;;;;;5023812;28;20591;-48
2024/01/31 08:46:46;;;;;;;5.03;1.90;;;19.40;52.20;;;;;;5024557;28;20060;-50
2024/01/31 08:49:12;;;;;;;3.88;2.20;;;19.40;52.20;;;;;;5023620;28;20134;-48
2024/01/31 08:52:14;;;;;;;4.18;2.60;;;19.40;52.20;;;;;;5013684;28;20035;-50
2024/01/31 08:54:40;;;;;;;3.22;2.78;;;19.40;52.20;;;;;;4992350;28;20029;-53
2024/01/31 09:01:04;;;;;;;4.72;3.20;;;19.40;52.20;;;;;;4992165;28;20529;-49
2024/01/31 09:06:51;;;;;;;5.05;3.53;;;19.40;52.30;;;;;;5010416;28;20100;-48
2024/01/31 09:09:16;;;;;;;5.45;3.50;;;19.30;52.40;;;;;;5006581;28;20037;-48
2024/01/31 09:11:42;;;;;;;5.57;3.38;;;19.30;52.50;;;;;;5022708;28;20030;-51
2024/01/31 09:14:08;;;;;;;4.03;3.42;;;19.30;52.60;;;;;;5021311;28;20040;-46
2024/01/31 09:16:36;;;;;;;7.53;4.13;;;19.20;52.60;;;;;;5016596;28;20026;-51
2024/01/31 09:19:03;;;;;;;5.95;3.90;;;19.20;52.60;;;;;;5016267;28;20033;-49
2024/01/31 09:21:29;;;;;;;6.78;4.40;;;19.20;52.70;;;;;;5018803;28;20047;-52
2024/01/31 09:23:54;;;;;;;6.43;3.97;;;19.20;52.80;;;;;;5014546;28;20038;-48
2024/01/31 09:26:20;;;;;;;7.25;4.50;;;19.10;52.80;;;;;;5017872;28;20033;-48
2024/01/31 09:28:46;;;;;;;8.38;4.32;;;19.10;52.90;;;;;;5019560;28;20487;-49
2024/01/31 09:31:19;;;;;;;5.65;4.03;;;19.10;52.90;;;;;;5012485;28;20087;-48
2024/01/31 09:33:45;;;;;;;9.18;4.97;;;19.10;53.00;;;;;;5020073;28;20378;-47
2024/01/31 09:36:10;;;;;;;8.65;4.43;;;19.00;53.00;;;;;;4994960;28;20490;-48
2024/01/31 09:38:36;;;;;;;9.68;4.60;;;19.00;53.50;;;;;;5007915;28;20042;-53
2024/01/31 09:41:01;;;;;;;10.35;5.30;;;19.00;53.20;;;;;;5009966;28;20670;-47
2024/01/31 09:43:27;;;;;;;8.20;4.55;;;19.00;53.30;;;;;;5015202;28;20037;-50
2024/01/31 09:45:55;;;;;;;6.03;4.50;;;19.00;53.20;;;;;;5014794;28;20037;-48
2024/01/31 09:48:20;;;;;;;7.07;4.95;;;19.00;53.30;;;;;;5015390;28;20125;-48
2024/01/31 09:50:46;;;;;;;7.72;4.85;;;19.00;53.20;;;;;;5017110;28;20132;-48
2024/01/31 09:53:13;;;;;;;6.85;4.85;;;19.00;53.20;;;;;;5015375;28;20029;-49
2024/01/31 09:55:40;;;;;;;9.85;5.05;;;19.10;53.20;;;;;;5017313;28;20616;-52
2024/01/31 09:58:06;;;;;;;6.43;4.30;;;19.00;53.10;;;;;;5019118;28;20116;-50
2024/01/31 10:00:32;;;;;;;7.45;4.93;;;19.00;53.20;;;;;;5016731;28;20121;-47
2024/01/31 10:02:58;;;;;;;6.43;4.78;;;19.00;53.10;;;;;;5012795;28;20076;-48
2024/01/31 10:05:23;;;;;;;8.88;4.32;;;19.00;53.10;;;;;;5018860;28;20557;-51
2024/01/31 10:07:49;;;;;;;6.70;4.28;;;19.00;53.20;;;;;;5016380;28;20052;-46
2024/01/31 10:10:15;;;;;;;10.32;4.78;;;19.00;53.10;;;;;;5018136;28;20026;-48
2024/01/31 10:12:40;;;;;;;6.95;4.43;;;19.00;53.20;;;;;;5018876;28;20083;-50
2024/01/31 10:15:09;;;;;;;7.53;4.25;;;19.00;53.20;;;;;;5021241;28;20033;-46
2024/01/31 10:17:35;;;;;;;6.20;4.13;;;19.00;53.20;;;;;;5019068;28;20491;-48
2024/01/31 10:20:06;;;;;;;5.03;4.45;;;18.90;53.10;;;;;;5002500;28;20548;-48
2024/01/31 10:22:33;;;;;;;9.82;4.45;;;19.00;53.20;;;;;;5023690;23;20033;-47
2024/01/31 10:24:58;;;;;;;5.72;4.20;;;19.00;53.10;;;;;;5006670;28;20077;-50
2024/01/31 10:27:24;;;;;;;5.95;4.30;;;18.90;53.20;;;;;;5013853;28;20061;-48
2024/01/31 10:29:49;;;;;;;6.07;4.10;;;18.90;53.10;;;;;;5010173;28;20038;-48
2024/01/31 10:32:15;;;;;;;6.95;4.25;;;18.90;53.10;;;;;;5016171;28;20045;-48
2024/01/31 10:34:42;;;;;;;7.85;4.38;;;18.90;53.10;;;;;;5007765;28;20109;-48
2024/01/31 10:37:09;;;;;;;6.57;4.57;;;18.90;53.20;;;;;;5014854;28;20497;-52
2024/01/31 10:39:36;;;;;;;5.28;4.10;;;18.90;53.20;;;;;;5009937;28;20030;-50
2024/01/31 10:42:02;;;;;;;7.40;3.95;;;18.90;53.10;;;;;;5008707;28;20032;-48
2024/01/31 10:44:28;;;;;;;9.82;3.95;;;18.90;53.10;;;;;;5013516;28;20037;-50
2024/01/31 10:46:53;;;;;;;5.40;3.88;;;18.90;53.20;;;;;;5006417;28;20022;-51
2024/01/31 10:49:19;;;;;;;4.95;3.83;;;18.90;53.20;;;;;;5007217;28;20052;-51
2024/01/31 10:51:50;;;;;;;6.72;3.78;;;18.90;53.20;;;;;;5011010;28;20032;-49
2024/01/31 10:54:21;;;;;;;8.30;3.90;;;18.80;53.20;;;;;;5005686;28;20025;-50
2024/01/31 10:56:48;;;;;;;6.43;3.63;;;18.80;53.20;;;;;;5009137;28;20059;-49
2024/01/31 10:59:13;;;;;;;4.43;3.50;;;18.80;53.20;;;;;;5011038;28;20530;-50
2024/01/31 11:01:55;;;;;;;5.45;3.90;;;18.80;53.20;;;;;;5007642;28;20102;-53
2024/01/31 11:04:22;;;;;;;5.38;3.83;;;18.80;53.20;;;;;;5011338;28;20029;-51
2024/01/31 11:06:51;;;;;;;6.03;3.78;;;18.80;53.20;;;;;;5007932;28;20113;-51
2024/01/31 11:09:20;;;;;;;7.82;4.47;;;18.80;53.20;;;;;;5006556;28;20022;-47
2024/01/31 11:11:45;;;;;;;5.10;3.80;;;18.80;53.20;;;;;;5011666;28;20057;-53
2024/01/31 11:14:14;;;;;;;6.05;3.50;;;18.80;53.20;;;;;;5009830;28;20064;-49
2024/01/31 11:16:41;;;;;;;4.97;3.30;;;18.80;53.20;;;;;;5010103;28;20018;-50
2024/01/31 11:19:08;;;;;;;4.30;3.38;;;18.80;53.20;;;;;;5011804;28;20491;-48
2024/01/31 11:21:39;;;;;;;6.32;3.47;;;18.80;53.20;;;;;;5010321;28;20037;-50
2024/01/31 11:24:05;;;;;;;7.18;4.00;;;18.80;53.20;;;;;;5010230;28;20038;-50
2024/01/31 11:26:33;;;;;;;4.57;3.00;;;18.80;53.20;;;;;;5011339;28;20037;-47
2024/01/31 11:29:01;;;;;;;5.20;3.78;;;18.80;53.20;;;;;;5007474;28;20491;-50
2024/01/31 11:31:27;;;;;;;6.63;3.75;;;18.80;53.30;;;;;;5013252;28;20041;-48
2024/01/31 11:33:55;;;;;;;4.72;3.63;;;18.80;53.20;;;;;;5011675;28;20030;-49
2024/01/31 11:36:21;;;;;;;5.75;3.20;;;18.70;53.20;;;;;;5008760;28;20029;-48
2024/01/31 11:38:46;;;;;;;7.03;3.10;;;18.80;53.20;;;;;;5014954;28;20032;-50
2024/01/31 11:41:12;;;;;;;5.68;3.58;;;18.70;53.20;;;;;;5010391;28;20419;-53
2024/01/31 11:43:38;;;;;;;4.10;3.22;;;18.70;53.20;;;;;;5014670;28;20037;-50
2024/01/31 11:46:04;;;;;;;7.30;3.60;;;18.80;53.20;;;;;;5013758;28;20515;-56
2024/01/31 11:48:31;;;;;;;4.28;3.20;;;18.70;53.20;;;;;;5016327;28;20048;-47
2024/01/31 11:50:56;;;;;;;3.85;2.85;;;18.70;53.20;;;;;;5008484;28;20037;-48
2024/01/31 11:53:22;;;;;;;5.07;3.33;;;18.70;53.20;;;;;;5017062;28;20032;-55
2024/01/31 11:55:47;;;;;;;3.35;2.80;;;18.70;53.20;;;;;;5009614;28;20030;-49
2024/01/31 11:58:13;;;;;;;4.93;2.90;;;18.70;53.20;;;;;;5009688;28;20035;-49
2024/01/31 12:00:39;;;;;;;3.95;2.85;;;18.70;53.20;;;;;;5003575;28;20491;-51
2024/01/31 12:03:05;;;;;;;3.65;2.85;;;18.70;53.20;;;;;;5008285;28;20128;-57
2024/01/31 12:05:30;;;;;;;4.20;3.03;;;18.70;53.20;;;;;;5010463;28;20506;-54
2024/01/31 12:07:57;;;;;;;4.10;2.80;;;18.70;53.30;;;;;;5013101;28;20101;-52
2024/01/31 12:10:26;;;;;;;3.92;3.20;;;18.70;53.30;;;;;;5009507;28;20040;-51
2024/01/31 12:12:51;;;;;;;3.88;3.10;;;18.70;53.30;;;;;;5009720;28;20026;-47
2024/01/31 12:15:17;;;;;;;4.40;2.97;;;18.70;53.20;;;;;;5012030;28;20036;-50
2024/01/31 12:17:44;;;;;;;5.05;2.90;;;18.70;53.30;;;;;;5011337;28;20033;-57
2024/01/31 12:20:11;;;;;;;3.83;2.63;;;18.70;53.30;;;;;;5015391;28;20038;-50
2024/01/31 12:22:37;;;;;;;4.50;2.67;;;18.70;53.30;;;;;;5014393;28;20044;-46
2024/01/31 12:25:04;;;;;;;4.70;3.22;;;18.70;53.30;;;;;;5012138;28;20033;-46
2024/01/31 12:27:30;;;;;;;3.55;2.70;;;18.70;53.30;;;;;;4994182;28;20033;-48
2024/01/31 12:29:56;;;;;;;3.20;2.78;;;18.70;53.30;;;;;;5012723;28;20030;-50
2024/01/31 12:32:22;;;;;;;3.80;2.83;;;18.70;53.30;;;;;;5008440;28;20487;-48
2024/01/31 12:34:48;;;;;;;4.55;2.78;;;18.70;53.30;;;;;;5019950;28;20040;-53
2024/01/31 12:37:13;;;;;;;3.35;2.60;;;18.70;53.30;;;;;;5014019;28;20018;-55
2024/01/31 12:39:40;;;;;;;3.40;2.58;;;18.70;53.30;;;;;;5023136;28;20029;-49
2024/01/31 12:42:06;;;;;;;3.03;2.72;;;18.70;53.30;;;;;;5016432;28;20109;-54
2024/01/31 12:44:32;;;;;;;3.63;2.55;;;18.60;53.30;;;;;;5017512;28;20037;-56
2024/01/31 12:46:58;;;;;;;3.35;2.63;;;18.60;53.30;;;;;;5011130;28;20108;-51
2024/01/31 12:49:24;;;;;;;3.15;2.22;;;18.60;53.30;;;;;;5019681;28;20486;-54
2024/01/31 12:51:49;;;;;;;4.13;2.35;;;18.60;53.20;;;;;;5014516;28;20041;-52
2024/01/31 12:54:16;;;;;;;3.28;2.65;;;18.60;53.30;;;;;;5016345;28;20053;-48